createdAt,value
2023-01-19T00:01:37.964Z,5.91
2023-01-19T00:04:07.010Z,5.89
2023-01-19T00:06:35.956Z,5.84
2023-01-19T00:09:05.549Z,5.79
2023-01-19T00:11:34.379Z,5.72
2023-01-19T00:14:03.867Z,5.73
2023-01-19T00:16:32.732Z,5.75
2023-01-19T00:19:01.869Z,5.73
2023-01-19T00:21:30.912Z,5.71
2023-01-19T00:24:00.145Z,5.64
2023-01-19T00:26:29.421Z,5.59
2023-01-19T00:28:58.612Z,5.55
2023-01-19T00:31:30.792Z,5.54
2023-01-19T00:33:59.624Z,5.51
2023-01-19T00:36:28.604Z,5.47
2023-01-19T00:38:57.524Z,5.46
2023-01-19T00:41:45.384Z,5.42
2023-01-19T00:44:14.242Z,5.37
2023-01-19T00:46:43.020Z,5.37
2023-01-19T00:49:12.409Z,5.35
2023-01-19T00:51:41.246Z,5.33
2023-01-19T00:54:10.918Z,5.30
2023-01-19T00:56:40.646Z,5.33
2023-01-19T00:59:11.402Z,5.32
2023-01-19T01:01:45.982Z,5.27
2023-01-19T01:04:16.020Z,5.20
2023-01-19T01:06:45.560Z,5.12
2023-01-19T01:09:14.646Z,5.04
2023-01-19T01:11:45.020Z,5.01
2023-01-19T01:14:14.410Z,5.01
2023-01-19T01:16:43.908Z,5.01
2023-01-19T01:19:12.991Z,5.03
2023-01-19T01:21:42.235Z,5.01
2023-01-19T01:24:11.908Z,4.95
2023-01-19T01:26:41.195Z,4.84
2023-01-19T01:29:10.955Z,4.78
2023-01-19T01:31:39.795Z,4.79
2023-01-19T01:34:09.434Z,4.83
2023-01-19T01:36:38.117Z,4.90
2023-01-19T01:39:07.807Z,4.96
2023-01-19T01:41:36.858Z,4.99
2023-01-19T01:44:50.219Z,5.01
2023-01-19T01:47:30.294Z,4.93
2023-01-19T01:50:09.576Z,4.97
2023-01-19T01:53:06.096Z,4.99
2023-01-19T01:55:46.374Z,5.08
2023-01-19T01:58:17.366Z,5.20
2023-01-19T02:01:05.093Z,5.22
2023-01-19T02:03:35.439Z,5.15
2023-01-19T02:06:07.820Z,5.18
2023-01-19T02:09:18.776Z,5.22
2023-01-19T02:12:06.506Z,5.14
2023-01-19T02:14:39.222Z,5.11
2023-01-19T02:17:08.148Z,4.99
2023-01-19T02:19:42.483Z,4.79
2023-01-19T02:22:23.719Z,4.69
2023-01-19T02:24:54.542Z,4.56
2023-01-19T02:27:23.784Z,4.44
2023-01-19T02:29:52.650Z,4.36
2023-01-19T02:32:21.563Z,4.34
2023-01-19T02:34:50.441Z,4.33
2023-01-19T02:37:21.763Z,4.33
2023-01-19T02:39:57.384Z,4.33
2023-01-19T02:42:30.684Z,4.30
2023-01-19T02:45:00.357Z,4.32
2023-01-19T02:47:39.314Z,4.30
2023-01-19T02:50:36.229Z,4.29
2023-01-19T02:53:37.747Z,4.20
2023-01-19T02:56:27.820Z,4.18
2023-01-19T02:59:24.008Z,4.15
2023-01-19T03:02:01.843Z,4.09
2023-01-19T03:04:50.189Z,4.01
2023-01-19T03:07:28.477Z,3.96
2023-01-19T03:10:37.445Z,3.99
2023-01-19T03:13:42.481Z,3.87
2023-01-19T03:16:27.801Z,3.81
2023-01-19T03:19:04.665Z,3.92
2023-01-19T03:21:36.947Z,4.01
2023-01-19T03:24:08.900Z,4.06
2023-01-19T03:26:46.062Z,4.07
2023-01-19T03:29:17.941Z,4.13
2023-01-19T03:31:50.311Z,4.19
2023-01-19T03:34:25.502Z,4.27
2023-01-19T03:36:57.920Z,4.34
2023-01-19T03:39:28.769Z,4.33
2023-01-19T03:42:06.419Z,4.26
2023-01-19T03:44:38.218Z,4.14
2023-01-19T03:47:09.335Z,4.17
2023-01-19T03:49:40.007Z,4.26
2023-01-19T03:52:08.780Z,4.33
2023-01-19T03:54:37.843Z,4.34
2023-01-19T03:57:07.030Z,4.30
2023-01-19T03:59:36.525Z,4.22
2023-01-19T04:02:05.430Z,4.19
2023-01-19T04:04:34.539Z,4.27
2023-01-19T04:07:04.269Z,4.37
2023-01-19T04:09:33.107Z,4.43
2023-01-19T04:12:02.394Z,4.53
2023-01-19T04:14:30.909Z,4.67
2023-01-19T04:16:59.891Z,4.75
2023-01-19T04:19:28.854Z,4.72
2023-01-19T04:21:57.379Z,4.66
2023-01-19T04:24:26.066Z,4.62
2023-01-19T04:26:54.874Z,4.60
2023-01-19T04:29:24.873Z,4.54
2023-01-19T04:31:53.741Z,4.47
2023-01-19T04:34:22.775Z,4.35
2023-01-19T04:36:51.850Z,4.31
2023-01-19T04:39:20.722Z,4.30
2023-01-19T04:41:50.054Z,4.27
2023-01-19T04:44:19.048Z,4.31
2023-01-19T04:46:48.480Z,4.35
2023-01-19T04:49:17.277Z,4.41
2023-01-19T04:51:46.193Z,4.54
2023-01-19T04:54:15.308Z,4.64
2023-01-19T04:56:44.258Z,4.66
2023-01-19T04:59:13.800Z,4.67
2023-01-19T05:01:42.641Z,4.64
2023-01-19T05:04:11.476Z,4.66
2023-01-19T05:06:40.374Z,4.70
2023-01-19T05:09:09.700Z,4.74
2023-01-19T05:11:38.283Z,4.79
2023-01-19T05:14:07.411Z,4.85
2023-01-19T05:16:36.312Z,4.90
2023-01-19T05:19:05.125Z,4.98
2023-01-19T05:21:33.668Z,5.05
2023-01-19T05:24:03.415Z,5.10
2023-01-19T05:26:32.309Z,5.19
2023-01-19T05:29:01.220Z,5.27
2023-01-19T05:31:30.434Z,5.30
2023-01-19T05:33:59.678Z,5.23
2023-01-19T05:36:28.827Z,5.21
2023-01-19T05:38:57.907Z,5.28
2023-01-19T05:41:26.919Z,5.28
2023-01-19T05:43:56.217Z,5.31
2023-01-19T05:46:25.070Z,5.35
2023-01-19T05:48:53.639Z,5.35
2023-01-19T05:51:22.435Z,5.33
2023-01-19T05:53:50.971Z,5.34
2023-01-19T05:56:19.588Z,5.39
2023-01-19T05:58:49.041Z,5.50
2023-01-19T06:01:17.776Z,5.63
2023-01-19T06:03:47.667Z,5.70
2023-01-19T06:06:19.507Z,5.70
2023-01-19T06:08:48.535Z,5.70
2023-01-19T06:11:17.411Z,5.79
2023-01-19T06:13:47.324Z,5.85
2023-01-19T06:16:16.079Z,5.84
2023-01-19T06:18:46.187Z,5.81
2023-01-19T06:21:14.963Z,5.79
2023-01-19T06:23:44.188Z,5.79
2023-01-19T06:26:14.169Z,5.78
2023-01-19T06:28:43.053Z,5.83
2023-01-19T06:31:11.814Z,5.93
2023-01-19T06:33:41.162Z,6.01
2023-01-19T06:36:10.797Z,5.99
2023-01-19T06:38:39.445Z,5.96
2023-01-19T06:41:08.660Z,5.96
2023-01-19T06:43:38.309Z,6.01
2023-01-19T06:46:07.279Z,6.11
2023-01-19T06:48:36.498Z,6.23
2023-01-19T06:51:07.252Z,6.31
2023-01-19T06:53:36.934Z,6.38
2023-01-19T06:56:07.793Z,6.43
2023-01-19T06:58:37.305Z,6.47
2023-01-19T07:01:07.781Z,6.52
2023-01-19T07:03:38.663Z,6.57
2023-01-19T07:06:08.027Z,6.65
2023-01-19T07:08:38.102Z,6.68
2023-01-19T07:11:25.200Z,6.70
2023-01-19T07:13:58.117Z,6.66
2023-01-19T07:16:27.066Z,6.74
2023-01-19T07:18:56.120Z,6.85
2023-01-19T07:21:25.848Z,6.96
2023-01-19T07:23:55.626Z,6.99
2023-01-19T07:26:25.734Z,6.99
2023-01-19T07:28:54.939Z,7.08
2023-01-19T07:31:24.026Z,7.23
2023-01-19T07:33:53.608Z,7.39
2023-01-19T07:36:22.942Z,7.51
2023-01-19T07:38:51.637Z,7.57
2023-01-19T07:41:20.979Z,7.60
2023-01-19T07:43:51.894Z,7.57
2023-01-19T07:46:21.224Z,7.60
2023-01-19T07:48:50.939Z,7.66
2023-01-19T07:51:20.177Z,7.75
2023-01-19T07:53:52.675Z,7.79
2023-01-19T07:56:23.001Z,7.73
2023-01-19T07:58:52.811Z,7.72
2023-01-19T08:01:22.111Z,7.71
2023-01-19T08:03:51.749Z,7.70
2023-01-19T08:06:27.766Z,7.69
2023-01-19T08:08:57.186Z,7.64
2023-01-19T08:11:26.737Z,7.72
2023-01-19T08:13:55.411Z,7.89
2023-01-19T08:16:24.813Z,7.86
2023-01-19T08:18:53.708Z,7.85
2023-01-19T08:21:23.248Z,7.87
2023-01-19T08:24:33.878Z,7.84
2023-01-19T08:27:04.764Z,7.69
2023-01-19T08:29:34.010Z,7.43
2023-01-19T08:32:03.465Z,7.14
2023-01-19T08:34:32.230Z,6.99
2023-01-19T08:37:01.170Z,6.95
2023-01-19T08:39:29.655Z,6.92
2023-01-19T08:41:59.935Z,7.03
2023-01-19T08:44:28.566Z,7.22
2023-01-19T08:46:56.928Z,7.33
2023-01-19T08:49:27.321Z,7.52
2023-01-19T08:51:56.276Z,7.78
2023-01-19T08:54:25.071Z,8.49
2023-01-19T08:56:53.551Z,10.00
2023-01-19T08:59:22.189Z,12.52
2023-01-19T09:01:51.303Z,15.38
2023-01-19T09:04:20.243Z,17.96
2023-01-19T09:06:49.217Z,20.48
2023-01-19T09:09:17.914Z,22.80
2023-01-19T09:11:46.527Z,24.22
2023-01-19T09:14:15.158Z,25.24
2023-01-19T09:16:43.825Z,26.47
2023-01-19T09:19:14.377Z,27.02
2023-01-19T09:21:42.698Z,27.87
2023-01-19T09:24:11.436Z,28.89
2023-01-19T09:26:40.976Z,29.86
2023-01-19T09:29:09.511Z,30.63
2023-01-19T09:31:38.005Z,31.35
2023-01-19T09:34:07.403Z,32.21
2023-01-19T09:36:37.654Z,32.80
2023-01-19T09:39:06.651Z,33.11
2023-01-19T09:41:37.155Z,33.56
2023-01-19T09:44:06.668Z,33.88
2023-01-19T09:46:42.017Z,34.01
2023-01-19T09:49:28.941Z,34.23
2023-01-19T09:51:59.598Z,34.44
2023-01-19T09:54:44.890Z,34.41
2023-01-19T09:57:15.183Z,33.65
2023-01-19T09:59:48.099Z,33.58
2023-01-19T10:02:24.452Z,33.37
2023-01-19T10:05:00.654Z,32.46
2023-01-19T10:07:59.412Z,32.30
2023-01-19T10:10:31.549Z,32.22
2023-01-19T10:13:06.490Z,32.14
2023-01-19T10:15:44.260Z,31.95
2023-01-19T10:18:20.583Z,30.77
2023-01-19T10:21:03.485Z,30.75
2023-01-19T10:23:43.650Z,31.63
2023-01-19T10:26:24.806Z,32.41
2023-01-19T10:29:06.050Z,32.88
2023-01-19T10:31:39.076Z,33.37
2023-01-19T10:34:18.922Z,33.67
2023-01-19T10:36:52.475Z,33.76
2023-01-19T10:39:21.948Z,32.73
2023-01-19T10:41:53.042Z,31.10
2023-01-19T10:44:28.801Z,29.63
2023-01-19T10:47:00.785Z,28.50
2023-01-19T10:49:45.878Z,26.61
2023-01-19T10:52:31.282Z,24.68
2023-01-19T10:55:03.759Z,23.10
2023-01-19T10:57:38.427Z,21.92
2023-01-19T11:00:28.863Z,21.12
2023-01-19T11:02:59.628Z,20.26
2023-01-19T11:05:31.776Z,19.76
2023-01-19T11:08:01.713Z,19.27
2023-01-19T11:10:32.220Z,19.23
2023-01-19T11:13:13.545Z,19.68
2023-01-19T11:15:45.681Z,19.82
2023-01-19T11:18:38.044Z,19.99
2023-01-19T11:21:20.641Z,20.31
2023-01-19T11:23:57.771Z,20.39
2023-01-19T11:26:42.907Z,21.02
2023-01-19T11:29:18.036Z,21.30
2023-01-19T11:31:48.993Z,22.29
2023-01-19T11:34:39.621Z,21.89
2023-01-19T11:37:11.681Z,21.12
2023-01-19T11:39:53.495Z,20.45
2023-01-19T11:42:23.627Z,19.25
2023-01-19T11:45:00.412Z,18.12
2023-01-19T11:47:34.662Z,17.06
2023-01-19T11:50:26.078Z,16.27
2023-01-19T11:53:13.277Z,15.76
2023-01-19T11:55:50.748Z,15.07
2023-01-19T11:58:21.494Z,14.49
2023-01-19T12:01:25.823Z,14.15
2023-01-19T12:04:08.820Z,13.44
2023-01-19T12:06:43.483Z,13.29
2023-01-19T12:09:27.511Z,13.33
2023-01-19T12:12:07.332Z,13.49
2023-01-19T12:14:54.739Z,13.75
2023-01-19T12:17:30.054Z,14.04
2023-01-19T12:20:15.631Z,14.03
2023-01-19T12:22:59.812Z,13.85
2023-01-19T12:25:48.528Z,13.50
2023-01-19T12:28:21.715Z,13.29
2023-01-19T12:30:52.579Z,13.33
2023-01-19T12:33:30.327Z,13.39
2023-01-19T12:36:02.613Z,13.32
2023-01-19T12:38:54.416Z,13.31
2023-01-19T12:41:26.878Z,13.09
2023-01-19T12:44:11.547Z,13.10
2023-01-19T12:47:15.816Z,13.41
2023-01-19T12:49:48.699Z,13.74
2023-01-19T12:52:36.927Z,13.97
2023-01-19T12:55:18.939Z,13.88
2023-01-19T12:58:08.777Z,13.77
2023-01-19T13:00:47.802Z,13.97
2023-01-19T13:03:16.987Z,14.36
2023-01-19T13:05:53.421Z,14.75
2023-01-19T13:08:25.586Z,14.73
2023-01-19T13:10:57.154Z,14.45
2023-01-19T13:13:40.451Z,14.42
2023-01-19T13:16:28.246Z,14.16
2023-01-19T13:19:19.932Z,14.08
2023-01-19T13:21:50.269Z,14.36
2023-01-19T13:24:23.818Z,14.77
2023-01-19T13:26:53.755Z,14.58
2023-01-19T13:29:30.393Z,14.49
2023-01-19T13:32:22.020Z,14.40
2023-01-19T13:34:59.362Z,15.14
2023-01-19T13:37:42.323Z,15.97
2023-01-19T13:40:41.552Z,16.96
2023-01-19T13:43:29.873Z,17.06
2023-01-19T13:46:01.664Z,16.38
2023-01-19T13:48:33.471Z,15.78
2023-01-19T13:51:07.616Z,15.07
2023-01-19T13:53:37.367Z,14.47
2023-01-19T13:56:15.036Z,13.92
2023-01-19T13:58:44.975Z,13.78
2023-01-19T14:01:23.797Z,14.80
2023-01-19T14:03:55.642Z,15.92
2023-01-19T14:06:41.336Z,16.84
2023-01-19T14:09:20.234Z,16.87
2023-01-19T14:12:14.432Z,15.54
2023-01-19T14:14:45.113Z,14.38
2023-01-19T14:17:28.930Z,13.57
2023-01-19T14:20:01.484Z,12.89
2023-01-19T14:22:47.635Z,12.35
2023-01-19T14:25:32.946Z,11.96
2023-01-19T14:28:36.171Z,11.60
2023-01-19T14:31:30.012Z,11.11
2023-01-19T14:33:59.707Z,10.72
2023-01-19T14:36:39.976Z,10.54
2023-01-19T14:39:20.850Z,10.33
2023-01-19T14:41:53.398Z,10.45
2023-01-19T14:44:40.115Z,10.61
2023-01-19T14:47:34.239Z,10.46
2023-01-19T14:50:21.057Z,10.22
2023-01-19T14:53:21.816Z,9.90
2023-01-19T14:55:59.907Z,9.58
2023-01-19T14:58:33.525Z,9.33
2023-01-19T15:01:04.214Z,9.16
2023-01-19T15:03:49.294Z,8.96
2023-01-19T15:06:21.350Z,8.76
2023-01-19T15:08:53.770Z,8.69
2023-01-19T15:11:25.774Z,8.63
2023-01-19T15:13:56.529Z,8.56
2023-01-19T15:16:29.614Z,8.50
2023-01-19T15:18:59.084Z,8.46
2023-01-19T15:21:27.955Z,8.46
2023-01-19T15:23:58.982Z,8.48
2023-01-19T15:26:28.813Z,8.45
2023-01-19T15:28:58.482Z,8.43
2023-01-19T15:31:28.561Z,8.41
2023-01-19T15:33:58.444Z,8.36
2023-01-19T15:36:27.426Z,8.30
2023-01-19T15:38:57.615Z,8.30
2023-01-19T15:41:30.204Z,8.28
2023-01-19T15:44:00.380Z,8.29
2023-01-19T15:46:29.266Z,8.18
2023-01-19T15:48:58.603Z,7.93
2023-01-19T15:51:28.698Z,7.65
2023-01-19T15:53:58.910Z,7.48
2023-01-19T15:56:32.477Z,7.31
2023-01-19T15:59:02.761Z,7.11
2023-01-19T16:01:33.202Z,7.03
2023-01-19T16:04:05.070Z,6.95
2023-01-19T16:06:35.102Z,6.87
2023-01-19T16:09:05.059Z,6.79
2023-01-19T16:11:36.218Z,6.63
2023-01-19T16:14:05.864Z,6.58
2023-01-19T16:16:35.197Z,6.59
2023-01-19T16:19:05.376Z,6.58
2023-01-19T16:21:35.317Z,6.58
2023-01-19T16:24:04.964Z,6.52
2023-01-19T16:26:37.145Z,6.48
2023-01-19T16:29:09.510Z,6.46
2023-01-19T16:31:40.493Z,6.47
2023-01-19T16:34:10.876Z,6.46
2023-01-19T16:36:42.306Z,6.35
2023-01-19T16:39:15.361Z,6.24
2023-01-19T16:41:46.717Z,6.24
2023-01-19T16:44:18.247Z,6.27
2023-01-19T16:46:50.718Z,6.24
2023-01-19T16:49:22.574Z,6.14
2023-01-19T16:51:56.514Z,6.05
2023-01-19T16:54:27.437Z,6.02
2023-01-19T16:56:58.434Z,5.98
2023-01-19T16:59:29.529Z,5.91
2023-01-19T17:01:59.555Z,5.83
2023-01-19T17:04:29.272Z,5.84
2023-01-19T17:06:59.107Z,5.86
2023-01-19T17:09:28.130Z,5.87
2023-01-19T17:11:59.120Z,5.80
2023-01-19T17:14:28.049Z,5.78
2023-01-19T17:16:57.679Z,5.79
2023-01-19T17:19:29.234Z,5.86
2023-01-19T17:21:58.847Z,5.87
2023-01-19T17:24:29.229Z,5.82
2023-01-19T17:27:01.389Z,5.81
2023-01-19T17:29:34.436Z,5.82
2023-01-19T17:32:04.630Z,5.81
2023-01-19T17:34:34.578Z,5.76
2023-01-19T17:37:04.894Z,5.68
2023-01-19T17:39:35.297Z,5.69
2023-01-19T17:42:04.876Z,5.67
2023-01-19T17:44:34.080Z,5.63
2023-01-19T17:47:03.636Z,5.59
2023-01-19T17:49:32.797Z,5.55
2023-01-19T17:52:01.858Z,5.56
2023-01-19T17:54:31.355Z,5.54
2023-01-19T17:57:00.427Z,5.47
2023-01-19T17:59:29.751Z,5.42
2023-01-19T18:01:59.423Z,5.43
2023-01-19T18:04:29.799Z,5.41
2023-01-19T18:07:00.518Z,5.38
2023-01-19T18:09:29.780Z,5.32
2023-01-19T18:11:58.821Z,5.29
2023-01-19T18:14:27.705Z,5.31
2023-01-19T18:16:57.017Z,5.32
2023-01-19T18:19:27.929Z,5.31
2023-01-19T18:21:57.164Z,5.31
2023-01-19T18:24:26.814Z,5.35
2023-01-19T18:26:56.354Z,5.42
2023-01-19T18:29:25.487Z,5.43
2023-01-19T18:31:54.685Z,5.39
2023-01-19T18:34:24.079Z,5.35
2023-01-19T18:36:53.503Z,5.36
2023-01-19T18:39:22.287Z,5.37
2023-01-19T18:41:51.615Z,5.34
2023-01-19T18:44:21.325Z,5.29
2023-01-19T18:46:50.386Z,5.26
2023-01-19T18:49:20.034Z,5.26
2023-01-19T18:51:48.781Z,5.23
2023-01-19T18:54:18.803Z,5.15
2023-01-19T18:56:51.003Z,5.09
2023-01-19T18:59:20.651Z,5.01
2023-01-19T19:01:49.601Z,5.02
2023-01-19T19:04:18.528Z,5.02
2023-01-19T19:06:47.903Z,5.03
2023-01-19T19:09:17.469Z,5.07
2023-01-19T19:11:47.964Z,5.11
2023-01-19T19:14:17.753Z,5.14
2023-01-19T19:16:46.986Z,5.15
2023-01-19T19:19:17.802Z,5.08
2023-01-19T19:21:47.294Z,5.02
2023-01-19T19:24:16.710Z,5.06
2023-01-19T19:26:45.990Z,5.15
2023-01-19T19:29:15.746Z,5.17
2023-01-19T19:31:44.916Z,5.13
2023-01-19T19:34:14.329Z,5.16
2023-01-19T19:36:43.368Z,5.25
2023-01-19T19:39:12.655Z,5.33
2023-01-19T19:41:43.365Z,5.33
2023-01-19T19:44:14.342Z,5.24
2023-01-19T19:46:44.690Z,5.24
2023-01-19T19:49:14.033Z,5.25
2023-01-19T19:51:46.524Z,5.21
2023-01-19T19:54:16.285Z,5.13
2023-01-19T19:56:47.902Z,5.06
2023-01-19T19:59:17.192Z,5.02
2023-01-19T20:01:50.568Z,5.00
2023-01-19T20:04:26.361Z,4.94
2023-01-19T20:06:57.140Z,4.83
2023-01-19T20:09:26.564Z,4.79
2023-01-19T20:11:55.927Z,4.75
2023-01-19T20:14:24.707Z,4.75
2023-01-19T20:17:02.819Z,4.76
2023-01-19T20:19:33.193Z,4.74
2023-01-19T20:22:03.073Z,4.79
2023-01-19T20:24:32.147Z,4.82
2023-01-19T20:27:01.218Z,4.90
2023-01-19T20:29:31.281Z,4.89
2023-01-19T20:32:00.761Z,4.83
2023-01-19T20:34:33.513Z,4.83
2023-01-19T20:37:05.009Z,4.84
2023-01-19T20:39:35.683Z,4.91
2023-01-19T20:42:05.964Z,4.96
2023-01-19T20:44:35.082Z,5.00
2023-01-19T20:47:06.617Z,5.04
2023-01-19T20:49:37.152Z,5.16
2023-01-19T20:52:06.136Z,5.27
2023-01-19T20:54:35.103Z,5.31
2023-01-19T20:57:04.132Z,5.31
2023-01-19T20:59:34.653Z,5.32
2023-01-19T21:02:06.689Z,5.33
2023-01-19T21:04:37.394Z,5.38
2023-01-19T21:07:08.635Z,5.39
2023-01-19T21:09:39.679Z,5.37
2023-01-19T21:12:10.327Z,5.36
2023-01-19T21:14:41.225Z,5.37
2023-01-19T21:17:10.705Z,5.38
2023-01-19T21:19:39.567Z,5.31
2023-01-19T21:22:09.113Z,5.21
2023-01-19T21:24:38.272Z,5.21
2023-01-19T21:27:07.327Z,5.20
2023-01-19T21:29:36.498Z,5.24
2023-01-19T21:32:05.984Z,5.28
2023-01-19T21:34:35.251Z,5.29
2023-01-19T21:37:04.142Z,5.28
2023-01-19T21:39:32.841Z,5.31
2023-01-19T21:42:02.376Z,5.31
2023-01-19T21:44:31.207Z,5.30
2023-01-19T21:47:00.453Z,5.29
2023-01-19T21:49:29.357Z,5.29
2023-01-19T21:51:58.428Z,5.31
2023-01-19T21:54:28.556Z,5.32
2023-01-19T21:56:58.649Z,5.32
2023-01-19T21:59:30.428Z,5.34
2023-01-19T22:02:00.323Z,5.39
2023-01-19T22:04:30.491Z,5.46
2023-01-19T22:07:00.134Z,5.45
2023-01-19T22:09:29.590Z,5.39
2023-01-19T22:11:59.944Z,5.35
2023-01-19T22:14:30.572Z,5.34
2023-01-19T22:16:59.673Z,5.30
2023-01-19T22:19:28.429Z,5.23
2023-01-19T22:21:57.462Z,5.16
2023-01-19T22:24:26.322Z,5.14
2023-01-19T22:26:56.023Z,5.12
2023-01-19T22:29:25.104Z,5.13
2023-01-19T22:31:54.659Z,5.10
2023-01-19T22:34:24.796Z,5.06
2023-01-19T22:36:55.497Z,5.03
2023-01-19T22:39:25.093Z,5.02
2023-01-19T22:41:55.194Z,4.98
2023-01-19T22:44:24.186Z,4.94
2023-01-19T22:46:57.610Z,4.91
2023-01-19T22:49:27.582Z,4.91
2023-01-19T22:51:57.798Z,4.92
2023-01-19T22:54:27.067Z,4.96
2023-01-19T22:56:56.201Z,4.96
2023-01-19T22:59:25.854Z,4.91
2023-01-19T23:01:54.818Z,4.88
2023-01-19T23:04:23.968Z,4.88
2023-01-19T23:06:53.153Z,4.87
2023-01-19T23:09:23.080Z,4.83
2023-01-19T23:11:51.716Z,4.82
2023-01-19T23:14:22.712Z,4.89
2023-01-19T23:16:51.770Z,4.96
2023-01-19T23:19:20.777Z,5.04
2023-01-19T23:21:53.053Z,5.05
2023-01-19T23:24:22.190Z,5.05
2023-01-19T23:26:51.561Z,5.09
2023-01-19T23:29:20.585Z,5.14
2023-01-19T23:31:50.875Z,5.20
2023-01-19T23:34:20.439Z,5.26
2023-01-19T23:36:49.640Z,5.30
2023-01-19T23:39:22.065Z,5.31
2023-01-19T23:41:51.645Z,5.29
2023-01-19T23:44:21.254Z,5.31
2023-01-19T23:46:51.060Z,5.32
2023-01-19T23:49:21.121Z,5.28
2023-01-19T23:51:50.900Z,5.26
2023-01-19T23:54:20.179Z,5.30
2023-01-19T23:56:49.601Z,5.31
2023-01-19T23:59:18.930Z,5.31
